sensor_id;sensor_type;location;lat;lon;timestamp;pressure;altitude;pressure_sealevel;temperature;humidity
36378;BME280;22402;42.746;23.606;2023-07-28T00:02:07;93561.47;;;13.38;82.72
36378;BME280;22402;42.746;23.606;2023-07-28T00:04:35;93561.97;;;13.33;82.94
36378;BME280;22402;42.746;23.606;2023-07-28T00:07:02;93566.06;;;13.36;82.67
36378;BME280;22402;42.746;23.606;2023-07-28T00:09:27;93569.31;;;13.30;82.32
36378;BME280;22402;42.746;23.606;2023-07-28T00:11:53;93568.94;;;13.25;82.10
36378;BME280;22402;42.746;23.606;2023-07-28T00:14:18;93567.16;;;13.25;82.78
36378;BME280;22402;42.746;23.606;2023-07-28T00:16:44;93569.78;;;13.25;82.44
36378;BME280;22402;42.746;23.606;2023-07-28T00:19:09;93567.97;;;13.26;82.86
36378;BME280;22402;42.746;23.606;2023-07-28T00:21:35;93565.72;;;13.31;82.94
36378;BME280;22402;42.746;23.606;2023-07-28T00:24:00;93577.00;;;13.31;82.44
36378;BME280;22402;42.746;23.606;2023-07-28T00:26:26;93562.44;;;13.29;82.65
36378;BME280;22402;42.746;23.606;2023-07-28T00:28:51;93567.97;;;13.26;82.47
36378;BME280;22402;42.746;23.606;2023-07-28T00:31:17;93568.78;;;13.26;82.49
36378;BME280;22402;42.746;23.606;2023-07-28T00:34:11;93561.41;;;13.21;83.17
36378;BME280;22402;42.746;23.606;2023-07-28T00:36:37;93564.97;;;13.20;84.07
36378;BME280;22402;42.746;23.606;2023-07-28T00:51:24;93559.22;;;13.43;83.00
36378;BME280;22402;42.746;23.606;2023-07-28T00:53:50;93561.63;;;13.28;82.66
36378;BME280;22402;42.746;23.606;2023-07-28T00:56:19;93559.22;;;13.17;83.05
36378;BME280;22402;42.746;23.606;2023-07-28T00:58:44;93569.53;;;13.10;83.63
36378;BME280;22402;42.746;23.606;2023-07-28T01:01:10;93564.25;;;13.02;83.68
36378;BME280;22402;42.746;23.606;2023-07-28T01:03:35;93568.50;;;13.03;84.02
36378;BME280;22402;42.746;23.606;2023-07-28T01:06:10;93570.97;;;13.05;84.49
36378;BME280;22402;42.746;23.606;2023-07-28T01:08:46;93569.66;;;13.00;84.33
36378;BME280;22402;42.746;23.606;2023-07-28T01:11:13;93566.34;;;12.98;84.53
36378;BME280;22402;42.746;23.606;2023-07-28T01:13:39;93560.97;;;13.00;84.66
36378;BME280;22402;42.746;23.606;2023-07-28T01:16:05;93557.00;;;12.96;83.61
36378;BME280;22402;42.746;23.606;2023-07-28T01:18:31;93562.38;;;12.86;84.86
36378;BME280;22402;42.746;23.606;2023-07-28T01:20:57;93559.88;;;12.85;84.88
36378;BME280;22402;42.746;23.606;2023-07-28T01:26:05;93560.50;;;12.78;86.08
36378;BME280;22402;42.746;23.606;2023-07-28T01:28:33;93561.34;;;12.79;86.15
36378;BME280;22402;42.746;23.606;2023-07-28T01:31:01;93557.38;;;12.75;86.35
36378;BME280;22402;42.746;23.606;2023-07-28T01:33:27;93552.84;;;12.77;86.35
36378;BME280;22402;42.746;23.606;2023-07-28T01:35:52;93558.06;;;12.77;86.68
36378;BME280;22402;42.746;23.606;2023-07-28T01:38:17;93549.41;;;12.76;87.32
36378;BME280;22402;42.746;23.606;2023-07-28T01:40:43;93558.06;;;12.77;87.97
36378;BME280;22402;42.746;23.606;2023-07-28T01:43:08;93549.91;;;12.80;87.51
36378;BME280;22402;42.746;23.606;2023-07-28T01:45:34;93548.47;;;12.86;87.57
36378;BME280;22402;42.746;23.606;2023-07-28T01:47:59;93547.97;;;12.90;88.46
36378;BME280;22402;42.746;23.606;2023-07-28T01:50:25;93547.66;;;12.93;87.79
36378;BME280;22402;42.746;23.606;2023-07-28T01:52:51;93543.78;;;12.97;88.09
36378;BME280;22402;42.746;23.606;2023-07-28T01:55:16;93553.44;;;12.97;86.48
36378;BME280;22402;42.746;23.606;2023-07-28T01:57:53;93547.66;;;12.85;86.81
36378;BME280;22402;42.746;23.606;2023-07-28T02:00:19;93534.88;;;12.82;87.61
36378;BME280;22402;42.746;23.606;2023-07-28T02:02:46;93540.75;;;12.84;88.11
36378;BME280;22402;42.746;23.606;2023-07-28T02:05:11;93545.34;;;12.82;86.83
36378;BME280;22402;42.746;23.606;2023-07-28T02:07:37;93544.00;;;12.78;86.78
36378;BME280;22402;42.746;23.606;2023-07-28T02:10:02;93541.88;;;12.73;86.95
36378;BME280;22402;42.746;23.606;2023-07-28T02:12:28;93535.44;;;12.68;87.39
36378;BME280;22402;42.746;23.606;2023-07-28T02:14:53;93540.00;;;12.66;87.89
36378;BME280;22402;42.746;23.606;2023-07-28T02:17:18;93523.94;;;12.61;87.25
36378;BME280;22402;42.746;23.606;2023-07-28T02:19:44;93530.47;;;12.57;87.54
36378;BME280;22402;42.746;23.606;2023-07-28T02:22:09;93535.69;;;12.57;88.05
36378;BME280;22402;42.746;23.606;2023-07-28T02:24:36;93534.06;;;12.56;88.15
36378;BME280;22402;42.746;23.606;2023-07-28T02:27:02;93542.88;;;12.54;88.27
36378;BME280;22402;42.746;23.606;2023-07-28T02:29:27;93543.53;;;12.57;89.22
36378;BME280;22402;42.746;23.606;2023-07-28T02:31:53;93551.28;;;12.66;90.21
36378;BME280;22402;42.746;23.606;2023-07-28T02:34:18;93543.28;;;12.68;89.94
36378;BME280;22402;42.746;23.606;2023-07-28T02:36:43;93543.28;;;12.68;89.83
36378;BME280;22402;42.746;23.606;2023-07-28T02:39:09;93548.34;;;12.69;90.74
36378;BME280;22402;42.746;23.606;2023-07-28T02:41:34;93545.28;;;12.74;92.06
36378;BME280;22402;42.746;23.606;2023-07-28T02:43:59;93550.88;;;12.79;92.45
36378;BME280;22402;42.746;23.606;2023-07-28T02:51:35;93567.59;;;12.86;92.47
36378;BME280;22402;42.746;23.606;2023-07-28T02:54:00;93567.91;;;12.83;92.54
36378;BME280;22402;42.746;23.606;2023-07-28T02:56:26;93565.75;;;12.78;93.13
36378;BME280;22402;42.746;23.606;2023-07-28T02:58:52;93563.97;;;12.79;93.48
36378;BME280;22402;42.746;23.606;2023-07-28T03:01:18;93564.94;;;12.78;93.35
36378;BME280;22402;42.746;23.606;2023-07-28T03:08:44;93552.84;;;12.77;94.13
36378;BME280;22402;42.746;23.606;2023-07-28T03:11:09;93562.47;;;12.76;93.63
36378;BME280;22402;42.746;23.606;2023-07-28T03:13:34;93553.28;;;12.72;93.94
36378;BME280;22402;42.746;23.606;2023-07-28T03:16:00;93557.34;;;12.67;93.55
36378;BME280;22402;42.746;23.606;2023-07-28T03:18:25;93566.16;;;12.66;94.15
36378;BME280;22402;42.746;23.606;2023-07-28T03:20:51;93567.28;;;12.63;95.06
36378;BME280;22402;42.746;23.606;2023-07-28T03:23:17;93565.19;;;12.67;95.38
36378;BME280;22402;42.746;23.606;2023-07-28T03:25:42;93563.41;;;12.67;95.11
36378;BME280;22402;42.746;23.606;2023-07-28T03:28:07;93571.91;;;12.69;95.82
36378;BME280;22402;42.746;23.606;2023-07-28T03:30:33;93572.06;;;12.68;96.41
36378;BME280;22402;42.746;23.606;2023-07-28T03:32:58;93575.34;;;12.70;96.24
36378;BME280;22402;42.746;23.606;2023-07-28T03:35:24;93584.47;;;12.66;95.42
36378;BME280;22402;42.746;23.606;2023-07-28T03:37:49;93587.41;;;12.63;95.23
36378;BME280;22402;42.746;23.606;2023-07-28T03:40:15;93588.53;;;12.60;95.07
36378;BME280;22402;42.746;23.606;2023-07-28T03:42:40;93590.31;;;12.60;95.19
36378;BME280;22402;42.746;23.606;2023-07-28T03:45:06;93589.34;;;12.61;95.10
36378;BME280;22402;42.746;23.606;2023-07-28T03:47:32;93579.72;;;12.61;95.05
36378;BME280;22402;42.746;23.606;2023-07-28T03:49:57;93584.94;;;12.61;95.78
36378;BME280;22402;42.746;23.606;2023-07-28T03:52:23;93587.69;;;12.60;95.86
36378;BME280;22402;42.746;23.606;2023-07-28T03:54:48;93587.69;;;12.60;95.16
36378;BME280;22402;42.746;23.606;2023-07-28T03:57:14;93582.47;;;12.60;95.14
36378;BME280;22402;42.746;23.606;2023-07-28T03:59:39;93591.00;;;12.62;94.23
36378;BME280;22402;42.746;23.606;2023-07-28T04:02:04;93592.78;;;12.61;94.13
36378;BME280;22402;42.746;23.606;2023-07-28T04:04:30;93585.28;;;12.66;93.94
36378;BME280;22402;42.746;23.606;2023-07-28T04:06:55;93586.09;;;12.67;94.78
36378;BME280;22402;42.746;23.606;2023-07-28T04:09:21;93590.88;;;12.71;93.96
36378;BME280;22402;42.746;23.606;2023-07-28T04:11:46;93586.97;;;12.75;93.90
36378;BME280;22402;42.746;23.606;2023-07-28T04:14:12;93588.47;;;12.78;94.44
36378;BME280;22402;42.746;23.606;2023-07-28T04:16:38;93586.38;;;12.82;93.16
36378;BME280;22402;42.746;23.606;2023-07-28T04:19:03;93582.47;;;12.86;92.67
36378;BME280;22402;42.746;23.606;2023-07-28T04:21:29;93582.16;;;12.89;91.84
36378;BME280;22402;42.746;23.606;2023-07-28T04:23:55;93584.00;;;12.96;93.07
36378;BME280;22402;42.746;23.606;2023-07-28T04:26:20;93583.38;;;13.03;93.74
36378;BME280;22402;42.746;23.606;2023-07-28T04:28:46;93587.69;;;13.12;94.24
36378;BME280;22402;42.746;23.606;2023-07-28T04:31:12;93575.97;;;13.24;94.69
36378;BME280;22402;42.746;23.606;2023-07-28T04:33:40;93584.22;;;13.37;95.37
36378;BME280;22402;42.746;23.606;2023-07-28T04:36:06;93591.44;;;13.43;95.45
36378;BME280;22402;42.746;23.606;2023-07-28T04:38:31;93587.75;;;13.54;95.31
36378;BME280;22402;42.746;23.606;2023-07-28T04:40:59;93600.69;;;13.64;95.37
36378;BME280;22402;42.746;23.606;2023-07-28T04:43:25;93596.63;;;13.70;95.26
36378;BME280;22402;42.746;23.606;2023-07-28T04:45:50;93599.28;;;13.78;95.03
36378;BME280;22402;42.746;23.606;2023-07-28T04:48:16;93606.00;;;13.88;95.27
36378;BME280;22402;42.746;23.606;2023-07-28T04:50:42;93609.31;;;13.99;94.98
36378;BME280;22402;42.746;23.606;2023-07-28T04:53:07;93608.34;;;14.08;94.88
36378;BME280;22402;42.746;23.606;2023-07-28T04:55:32;93606.72;;;14.15;94.47
36378;BME280;22402;42.746;23.606;2023-07-28T04:57:58;93601.63;;;14.22;93.79
36378;BME280;22402;42.746;23.606;2023-07-28T05:00:23;93601.81;;;14.28;93.60
36378;BME280;22402;42.746;23.606;2023-07-28T05:02:49;93603.78;;;14.34;92.88
36378;BME280;22402;42.746;23.606;2023-07-28T05:05:15;93607.06;;;14.45;92.48
36378;BME280;22402;42.746;23.606;2023-07-28T05:07:40;93601.84;;;14.53;92.35
36378;BME280;22402;42.746;23.606;2023-07-28T05:10:06;93603.00;;;14.58;91.94
36378;BME280;22402;42.746;23.606;2023-07-28T05:12:32;93603.00;;;14.67;92.01
36378;BME280;22402;42.746;23.606;2023-07-28T05:14:57;93598.56;;;14.75;91.37
36378;BME280;22402;42.746;23.606;2023-07-28T05:17:23;93602.81;;;14.85;91.29
36378;BME280;22402;42.746;23.606;2023-07-28T05:19:49;93601.50;;;14.97;90.44
36378;BME280;22402;42.746;23.606;2023-07-28T05:22:15;93607.03;;;15.10;90.13
36378;BME280;22402;42.746;23.606;2023-07-28T05:24:40;93611.59;;;15.24;89.69
36378;BME280;22402;42.746;23.606;2023-07-28T05:27:06;93600.72;;;15.36;88.63
36378;BME280;22402;42.746;23.606;2023-07-28T05:29:31;93604.63;;;15.48;88.63
36378;BME280;22402;42.746;23.606;2023-07-28T05:31:58;93603.25;;;15.60;88.11
36378;BME280;22402;42.746;23.606;2023-07-28T05:34:24;93602.72;;;15.73;88.38
36378;BME280;22402;42.746;23.606;2023-07-28T05:36:49;93602.78;;;15.96;88.22
36378;BME280;22402;42.746;23.606;2023-07-28T05:39:15;93608.19;;;16.26;88.09
36378;BME280;22402;42.746;23.606;2023-07-28T05:41:40;93601.06;;;16.57;86.30
36378;BME280;22402;42.746;23.606;2023-07-28T05:44:06;93607.44;;;16.86;84.31
36378;BME280;22402;42.746;23.606;2023-07-28T05:46:31;93599.22;;;17.19;82.87
36378;BME280;22402;42.746;23.606;2023-07-28T05:48:57;93609.03;;;17.54;81.08
36378;BME280;22402;42.746;23.606;2023-07-28T05:51:23;93603.59;;;17.86;80.46
36378;BME280;22402;42.746;23.606;2023-07-28T05:53:49;93603.78;;;18.20;79.21
36378;BME280;22402;42.746;23.606;2023-07-28T05:56:15;93589.66;;;18.50;77.61
36378;BME280;22402;42.746;23.606;2023-07-28T05:58:41;93601.13;;;18.78;76.66
36378;BME280;22402;42.746;23.606;2023-07-28T06:01:06;93595.03;;;19.06;75.53
36378;BME280;22402;42.746;23.606;2023-07-28T06:03:31;93590.53;;;19.28;74.29
36378;BME280;22402;42.746;23.606;2023-07-28T06:05:57;93587.97;;;19.48;73.45
36378;BME280;22402;42.746;23.606;2023-07-28T06:08:23;93590.31;;;19.64;72.58
36378;BME280;22402;42.746;23.606;2023-07-28T06:10:48;93582.91;;;19.81;71.83
36378;BME280;22402;42.746;23.606;2023-07-28T06:13:14;93581.13;;;19.95;71.35
36378;BME280;22402;42.746;23.606;2023-07-28T06:15:40;93578.53;;;20.08;70.73
36378;BME280;22402;42.746;23.606;2023-07-28T06:18:06;93583.66;;;20.23;70.38
36378;BME280;22402;42.746;23.606;2023-07-28T06:20:31;93588.16;;;20.36;69.75
36378;BME280;22402;42.746;23.606;2023-07-28T06:22:56;93584.72;;;20.48;69.59
36378;BME280;22402;42.746;23.606;2023-07-28T06:25:22;93576.03;;;20.61;68.76
36378;BME280;22402;42.746;23.606;2023-07-28T06:27:47;93574.41;;;20.74;68.47
36378;BME280;22402;42.746;23.606;2023-07-28T06:30:13;93576.03;;;20.88;68.75
36378;BME280;22402;42.746;23.606;2023-07-28T06:32:38;93585.59;;;21.02;67.51
36378;BME280;22402;42.746;23.606;2023-07-28T06:35:04;93583.78;;;21.16;67.07
36378;BME280;22402;42.746;23.606;2023-07-28T06:37:30;93581.09;;;21.29;66.52
36378;BME280;22402;42.746;23.606;2023-07-28T06:39:56;93582.53;;;21.38;65.32
36378;BME280;22402;42.746;23.606;2023-07-28T06:42:21;93573.56;;;21.46;64.42
36378;BME280;22402;42.746;23.606;2023-07-28T06:44:50;93576.81;;;21.55;63.86
36378;BME280;22402;42.746;23.606;2023-07-28T06:47:16;93574.31;;;21.67;63.67
36378;BME280;22402;42.746;23.606;2023-07-28T06:49:42;93579.16;;;21.83;63.49
36378;BME280;22402;42.746;23.606;2023-07-28T06:52:07;93573.59;;;21.98;62.61
36378;BME280;22402;42.746;23.606;2023-07-28T06:54:33;93574.16;;;22.13;61.73
36378;BME280;22402;42.746;23.606;2023-07-28T06:56:58;93573.69;;;22.29;61.03
36378;BME280;22402;42.746;23.606;2023-07-28T06:59:24;93572.53;;;22.50;60.59
36378;BME280;22402;42.746;23.606;2023-07-28T07:01:49;93573.22;;;22.71;60.02
36378;BME280;22402;42.746;23.606;2023-07-28T07:04:15;93573.09;;;22.91;59.29
36378;BME280;22402;42.746;23.606;2023-07-28T07:06:40;93571.75;;;23.07;58.49
36378;BME280;22402;42.746;23.606;2023-07-28T07:09:06;93573.00;;;23.29;57.78
36378;BME280;22402;42.746;23.606;2023-07-28T07:11:32;93571.53;;;23.52;56.89
36378;BME280;22402;42.746;23.606;2023-07-28T07:13:57;93576.00;;;23.76;55.85
36378;BME280;22402;42.746;23.606;2023-07-28T07:16:23;93569.34;;;24.04;54.24
36378;BME280;22402;42.746;23.606;2023-07-28T07:18:48;93571.53;;;24.25;54.14
36378;BME280;22402;42.746;23.606;2023-07-28T07:21:15;93567.50;;;24.53;52.70
36378;BME280;22402;42.746;23.606;2023-07-28T07:23:42;93575.34;;;24.78;52.03
36378;BME280;22402;42.746;23.606;2023-07-28T07:26:07;93571.91;;;25.01;50.94
36378;BME280;22402;42.746;23.606;2023-07-28T07:28:33;93576.38;;;25.31;50.43
36378;BME280;22402;42.746;23.606;2023-07-28T07:31:01;93583.91;;;25.57;48.97
36378;BME280;22402;42.746;23.606;2023-07-28T07:33:26;93583.91;;;30.83;48.97
36378;BME280;22402;42.746;23.606;2023-07-28T07:35:53;93577.28;;;25.95;46.19
36378;BME280;22402;42.746;23.606;2023-07-28T07:38:18;93574.22;;;26.15;45.46
36378;BME280;22402;42.746;23.606;2023-07-28T07:40:47;93581.91;;;26.40;45.19
36378;BME280;22402;42.746;23.606;2023-07-28T07:43:13;93579.75;;;26.66;45.25
36378;BME280;22402;42.746;23.606;2023-07-28T07:45:44;93578.09;;;26.93;44.55
36378;BME280;22402;42.746;23.606;2023-07-28T07:48:12;93582.38;;;27.23;44.63
36378;BME280;22402;42.746;23.606;2023-07-28T07:50:37;93593.00;;;27.52;42.29
36378;BME280;22402;42.746;23.606;2023-07-28T07:53:03;63716.94;;;-144.61;100.00
36378;BME280;22402;42.746;23.606;2023-07-28T07:55:28;63716.94;;;-144.61;100.00
36378;BME280;22402;42.746;23.606;2023-07-28T07:57:54;63716.94;;;-144.61;100.00
36378;BME280;22402;42.746;23.606;2023-07-28T08:00:20;63716.94;;;-144.61;100.00
36378;BME280;22402;42.746;23.606;2023-07-28T08:02:45;63716.94;;;-144.61;100.00
36378;BME280;22402;42.746;23.606;2023-07-28T08:05:10;63716.94;;;-144.61;100.00
36378;BME280;22402;42.746;23.606;2023-07-28T08:07:36;63716.94;;;-144.61;100.00
36378;BME280;22402;42.746;23.606;2023-07-28T08:10:02;63716.94;;;-144.61;100.00
36378;BME280;22402;42.746;23.606;2023-07-28T08:12:28;63716.94;;;-144.61;100.00
36378;BME280;22402;42.746;23.606;2023-07-28T08:14:55;63716.94;;;-144.61;100.00
36378;BME280;22402;42.746;23.606;2023-07-28T08:17:20;63716.94;;;-144.61;100.00
36378;BME280;22402;42.746;23.606;2023-07-28T08:19:46;63716.94;;;-144.61;100.00
36378;BME280;22402;42.746;23.606;2023-07-28T08:22:12;63716.94;;;-144.61;100.00
36378;BME280;22402;42.746;23.606;2023-07-28T08:24:38;63716.94;;;-144.61;100.00
36378;BME280;22402;42.746;23.606;2023-07-28T08:27:03;63716.94;;;-144.61;100.00
36378;BME280;22402;42.746;23.606;2023-07-28T08:29:29;63716.94;;;-144.61;100.00
36378;BME280;22402;42.746;23.606;2023-07-28T08:31:54;63716.94;;;-144.61;100.00
36378;BME280;22402;42.746;23.606;2023-07-28T08:34:19;63716.94;;;-144.61;100.00
36378;BME280;22402;42.746;23.606;2023-07-28T08:36:45;63716.94;;;-144.61;100.00
36378;BME280;22402;42.746;23.606;2023-07-28T08:39:11;63716.94;;;-144.61;100.00
36378;BME280;22402;42.746;23.606;2023-07-28T08:41:37;63716.94;;;-144.61;100.00
36378;BME280;22402;42.746;23.606;2023-07-28T08:44:02;63716.94;;;-144.61;100.00
36378;BME280;22402;42.746;23.606;2023-07-28T08:46:28;63716.94;;;-144.61;100.00
36378;BME280;22402;42.746;23.606;2023-07-28T08:48:54;63716.94;;;-144.61;100.00
36378;BME280;22402;42.746;23.606;2023-07-28T08:51:22;63716.94;;;-144.61;100.00
36378;BME280;22402;42.746;23.606;2023-07-28T08:53:48;63716.94;;;-144.61;100.00
36378;BME280;22402;42.746;23.606;2023-07-28T08:56:14;63716.94;;;-144.61;100.00
36378;BME280;22402;42.746;23.606;2023-07-28T08:58:40;63716.94;;;-144.61;100.00
36378;BME280;22402;42.746;23.606;2023-07-28T09:01:05;63716.94;;;-144.61;100.00
36378;BME280;22402;42.746;23.606;2023-07-28T09:03:30;63716.94;;;-144.61;100.00
36378;BME280;22402;42.746;23.606;2023-07-28T09:06:01;63716.94;;;-144.61;100.00
36378;BME280;22402;42.746;23.606;2023-07-28T09:08:27;63716.94;;;-144.61;100.00
36378;BME280;22402;42.746;23.606;2023-07-28T09:10:53;63716.94;;;-144.61;100.00
36378;BME280;22402;42.746;23.606;2023-07-28T09:13:19;63716.94;;;-144.61;100.00
36378;BME280;22402;42.746;23.606;2023-07-28T09:15:46;63716.94;;;-144.61;100.00
36378;BME280;22402;42.746;23.606;2023-07-28T09:18:14;63716.94;;;-144.61;100.00
36378;BME280;22402;42.746;23.606;2023-07-28T09:20:41;63716.94;;;-144.61;100.00
36378;BME280;22402;42.746;23.606;2023-07-28T09:23:07;63716.94;;;-144.61;100.00
36378;BME280;22402;42.746;23.606;2023-07-28T09:25:35;63716.94;;;-144.61;100.00
36378;BME280;22402;42.746;23.606;2023-07-28T09:28:01;63716.94;;;-144.61;100.00
36378;BME280;22402;42.746;23.606;2023-07-28T09:30:43;63716.94;;;-144.61;100.00
36378;BME280;22402;42.746;23.606;2023-07-28T09:33:09;63716.94;;;-144.61;100.00
36378;BME280;22402;42.746;23.606;2023-07-28T09:35:47;63716.94;;;-144.61;100.00
36378;BME280;22402;42.746;23.606;2023-07-28T09:38:14;63716.94;;;-144.61;100.00
36378;BME280;22402;42.746;23.606;2023-07-28T09:40:40;63716.94;;;-144.61;100.00
36378;BME280;22402;42.746;23.606;2023-07-28T09:43:06;63716.94;;;-144.61;100.00
36378;BME280;22402;42.746;23.606;2023-07-28T09:45:32;63716.94;;;-144.61;100.00
36378;BME280;22402;42.746;23.606;2023-07-28T09:48:02;63716.94;;;-144.61;100.00
36378;BME280;22402;42.746;23.606;2023-07-28T09:50:32;63716.94;;;-144.61;100.00
36378;BME280;22402;42.746;23.606;2023-07-28T09:53:02;63716.94;;;-144.61;100.00
36378;BME280;22402;42.746;23.606;2023-07-28T09:55:28;63716.94;;;-144.61;100.00
36378;BME280;22402;42.746;23.606;2023-07-28T09:57:55;63716.94;;;-144.61;100.00
36378;BME280;22402;42.746;23.606;2023-07-28T10:00:22;63716.94;;;-144.61;100.00
36378;BME280;22402;42.746;23.606;2023-07-28T10:02:48;63716.94;;;-144.61;100.00
36378;BME280;22402;42.746;23.606;2023-07-28T10:05:14;63716.94;;;-144.61;100.00
36378;BME280;22402;42.746;23.606;2023-07-28T10:07:42;63716.94;;;-144.61;100.00
36378;BME280;22402;42.746;23.606;2023-07-28T10:10:11;63716.94;;;-144.61;100.00
36378;BME280;22402;42.746;23.606;2023-07-28T10:12:46;63716.94;;;-144.61;100.00
36378;BME280;22402;42.746;23.606;2023-07-28T10:15:14;63716.94;;;-144.61;100.00
36378;BME280;22402;42.746;23.606;2023-07-28T10:17:46;63716.94;;;-144.61;100.00
36378;BME280;22402;42.746;23.606;2023-07-28T10:20:27;63716.94;;;-144.61;100.00
36378;BME280;22402;42.746;23.606;2023-07-28T10:22:53;63716.94;;;-144.61;100.00
36378;BME280;22402;42.746;23.606;2023-07-28T10:25:23;63716.94;;;-144.61;100.00
36378;BME280;22402;42.746;23.606;2023-07-28T10:27:50;63716.94;;;-144.61;100.00
36378;BME280;22402;42.746;23.606;2023-07-28T10:30:16;63716.94;;;-144.61;100.00
36378;BME280;22402;42.746;23.606;2023-07-28T10:32:47;63716.94;;;-144.61;100.00
36378;BME280;22402;42.746;23.606;2023-07-28T10:37:45;63716.94;;;-144.61;100.00
36378;BME280;22402;42.746;23.606;2023-07-28T10:40:30;63716.94;;;-144.61;100.00
36378;BME280;22402;42.746;23.606;2023-07-28T10:42:57;63716.94;;;-144.61;100.00
36378;BME280;22402;42.746;23.606;2023-07-28T10:45:25;63716.94;;;-144.61;100.00
36378;BME280;22402;42.746;23.606;2023-07-28T10:47:55;63716.94;;;-144.61;100.00
36378;BME280;22402;42.746;23.606;2023-07-28T10:50:23;63716.94;;;-144.61;100.00
36378;BME280;22402;42.746;23.606;2023-07-28T10:52:49;63716.94;;;-144.61;100.00
36378;BME280;22402;42.746;23.606;2023-07-28T10:55:17;63716.94;;;-144.61;100.00
36378;BME280;22402;42.746;23.606;2023-07-28T10:57:46;63716.94;;;-144.61;100.00
36378;BME280;22402;42.746;23.606;2023-07-28T11:00:13;63716.94;;;-144.61;100.00
36378;BME280;22402;42.746;23.606;2023-07-28T11:02:43;63716.94;;;-144.61;100.00
36378;BME280;22402;42.746;23.606;2023-07-28T11:05:13;63716.94;;;-144.61;100.00
36378;BME280;22402;42.746;23.606;2023-07-28T11:07:43;63716.94;;;-144.61;100.00
36378;BME280;22402;42.746;23.606;2023-07-28T11:10:13;63716.94;;;-144.61;100.00
36378;BME280;22402;42.746;23.606;2023-07-28T11:12:46;63716.94;;;-144.61;100.00
36378;BME280;22402;42.746;23.606;2023-07-28T11:15:13;63716.94;;;-144.61;100.00
36378;BME280;22402;42.746;23.606;2023-07-28T11:17:44;63716.94;;;-144.61;100.00
36378;BME280;22402;42.746;23.606;2023-07-28T11:20:25;63716.94;;;-144.61;100.00
36378;BME280;22402;42.746;23.606;2023-07-28T11:22:54;63716.94;;;-144.61;100.00
36378;BME280;22402;42.746;23.606;2023-07-28T11:25:21;63716.94;;;-144.61;100.00
36378;BME280;22402;42.746;23.606;2023-07-28T11:27:47;63716.94;;;-144.61;100.00
36378;BME280;22402;42.746;23.606;2023-07-28T11:30:13;63716.94;;;-144.61;100.00
36378;BME280;22402;42.746;23.606;2023-07-28T11:32:42;63716.94;;;-144.61;100.00
36378;BME280;22402;42.746;23.606;2023-07-28T11:35:09;63716.94;;;-144.61;100.00
36378;BME280;22402;42.746;23.606;2023-07-28T11:37:41;63716.94;;;-144.61;100.00
36378;BME280;22402;42.746;23.606;2023-07-28T11:40:09;63716.94;;;-144.61;100.00
36378;BME280;22402;42.746;23.606;2023-07-28T11:42:39;63716.94;;;-144.61;100.00
36378;BME280;22402;42.746;23.606;2023-07-28T11:45:06;63716.94;;;-144.61;100.00
36378;BME280;22402;42.746;23.606;2023-07-28T11:47:32;63716.94;;;-144.61;100.00
36378;BME280;22402;42.746;23.606;2023-07-28T11:49:57;63716.94;;;-144.61;100.00
36378;BME280;22402;42.746;23.606;2023-07-28T11:52:36;63716.94;;;-144.61;100.00
36378;BME280;22402;42.746;23.606;2023-07-28T11:55:06;63716.94;;;-144.61;100.00
36378;BME280;22402;42.746;23.606;2023-07-28T11:57:32;63716.94;;;-144.61;100.00
36378;BME280;22402;42.746;23.606;2023-07-28T11:59:58;63716.94;;;-144.61;100.00
36378;BME280;22402;42.746;23.606;2023-07-28T12:02:27;63716.94;;;-144.61;100.00
36378;BME280;22402;42.746;23.606;2023-07-28T12:04:53;63716.94;;;-144.61;100.00
36378;BME280;22402;42.746;23.606;2023-07-28T12:07:27;63716.94;;;-144.61;100.00
36378;BME280;22402;42.746;23.606;2023-07-28T12:09:53;63716.94;;;-144.61;100.00
36378;BME280;22402;42.746;23.606;2023-07-28T12:12:29;63716.94;;;-144.61;100.00
36378;BME280;22402;42.746;23.606;2023-07-28T12:14:56;63716.94;;;-144.61;100.00
36378;BME280;22402;42.746;23.606;2023-07-28T12:17:25;63716.94;;;-144.61;100.00
36378;BME280;22402;42.746;23.606;2023-07-28T12:20:02;63716.94;;;-144.61;100.00
36378;BME280;22402;42.746;23.606;2023-07-28T12:22:43;63716.94;;;-144.61;100.00
36378;BME280;22402;42.746;23.606;2023-07-28T12:25:09;63716.94;;;-144.61;100.00
36378;BME280;22402;42.746;23.606;2023-07-28T12:27:35;63716.94;;;-144.61;100.00
36378;BME280;22402;42.746;23.606;2023-07-28T12:30:01;63716.94;;;-144.61;100.00
36378;BME280;22402;42.746;23.606;2023-07-28T12:32:27;63716.94;;;-144.61;100.00
36378;BME280;22402;42.746;23.606;2023-07-28T12:34:53;63716.94;;;-144.61;100.00
36378;BME280;22402;42.746;23.606;2023-07-28T12:37:19;63716.94;;;-144.61;100.00
36378;BME280;22402;42.746;23.606;2023-07-28T12:39:44;63716.94;;;-144.61;100.00
36378;BME280;22402;42.746;23.606;2023-07-28T12:42:11;63716.94;;;-144.61;100.00
36378;BME280;22402;42.746;23.606;2023-07-28T12:44:41;63716.94;;;-144.61;100.00
36378;BME280;22402;42.746;23.606;2023-07-28T12:47:06;63716.94;;;-144.61;100.00
36378;BME280;22402;42.746;23.606;2023-07-28T12:49:32;63716.94;;;-144.61;100.00
36378;BME280;22402;42.746;23.606;2023-07-28T12:52:00;63716.94;;;-144.61;100.00
36378;BME280;22402;42.746;23.606;2023-07-28T12:54:26;63716.94;;;-144.61;100.00
36378;BME280;22402;42.746;23.606;2023-07-28T12:56:53;63716.94;;;-144.61;100.00
36378;BME280;22402;42.746;23.606;2023-07-28T12:59:18;63716.94;;;-144.61;100.00
36378;BME280;22402;42.746;23.606;2023-07-28T13:01:44;63716.94;;;-144.61;100.00
36378;BME280;22402;42.746;23.606;2023-07-28T13:04:10;63716.94;;;-144.61;100.00